Jolyn — PJWG — position and weather

sailwx.info

Track history (hours):
 
Tides and Currents Weather Stations Pressure Air Temp Water Temp Dewpoint Dewpoint Depression Visibility Wind Speed Wind Dir Waves Ship Positions

Jolyn

Last reported at 2017-Feb-21 01:32 UTC. Time now 2017-Feb-24 08:14 UTC.
Position N 56°19' E 017°01'.

Length 89 m; draft 5.1 m.

Type: Cargo ship. MMSI: 306813000.

Date/timePositionNaut miles runAvg speedWind from/ knotsBaromVisibWave heightAir tempDewpointWater temp
2017-Feb-21 01:32N 56°19' E 017°01'1010.5
2017-Feb-21 00:33N 56°10' E 016°54'10 9.8
2017-Feb-20 23:33N 56°02' E 016°43'1010.4
2017-Feb-20 22:33N 55°57' E 016°27'1010.5
2017-Feb-20 21:33N 55°52' E 016°10'1010.4
2017-Feb-20 20:33N 55°47' E 015°54'1110.6
2017-Feb-20 19:33N 55°42' E 015°38'1110.8
2017-Feb-20 18:33N 55°37' E 015°21'1111.1
2017-Feb-20 17:32N 55°31' E 015°04'1111.2
2017-Feb-20 16:33N 55°26' E 014°47'1110.9
2017-Feb-20 15:33N 55°18' E 014°32'1111.0
2017-Feb-20 14:33N 55°10' E 014°20'1010.0
2017-Feb-20 13:33N 55°09' E 014°02'3210.4
2017-Feb-20 10:31N 55°13' E 013°07'1010.5
2017-Feb-20 09:33N 55°15' E 012°50'9 8.6
2017-Feb-20 08:33N 55°21' E 012°39'1010.5
2017-Feb-20 07:33N 55°31' E 012°42'1110.7
2017-Feb-20 06:33N 55°42' E 012°41'10 9.8
2017-Feb-20 05:33N 55°52' E 012°41'9 9.1
2017-Feb-20 04:33N 56°00' E 012°38'9 9.4
2017-Feb-20 03:33N 56°08' E 012°28'1010.1
2017-Feb-20 02:33N 56°14' E 012°13'  
2017-Feb-17 16:13N 56°59' E 010°51'811.9
2017-Feb-17 15:33N 57°06' E 010°47'1211.9
2017-Feb-17 14:33N 57°18' E 010°42'1212.0
2017-Feb-17 13:33N 57°30' E 010°43'1212.1
2017-Feb-17 12:33N 57°42' E 010°45'9 9.0
2017-Feb-17 11:33N 57°46' E 010°30'1212.4
2017-Feb-17 10:33N 57°42' E 010°08'42012.3
2017-Feb-16 00:33N 53°33' E 000°10'1413.6
2017-Feb-15 23:33N 53°38' W 000°11'0 0.2
2017-Feb-15 22:31N 53°38' W 000°11'0 0.0
2017-Feb-15 21:31N 53°38' W 000°11'0 0.0
2017-Feb-15 20:31N 53°38' W 000°11'0 0.0
2017-Feb-15 19:28N 53°38' W 000°11'0 0.0
2017-Feb-15 18:28N 53°38' W 000°11'0 0.0
2017-Feb-15 17:31N 53°38' W 000°11'0 0.0
2017-Feb-15 16:31N 53°38' W 000°11'0 0.0
2017-Feb-15 15:31N 53°38' W 000°11'0 0.0
2017-Feb-15 14:31N 53°38' W 000°11'0 0.0
2017-Feb-15 13:31N 53°38' W 000°11'0 0.0
2017-Feb-15 12:31N 53°38' W 000°11'0 0.0
2017-Feb-15 11:31N 53°38' W 000°11'0 0.0
2017-Feb-15 10:31N 53°38' W 000°11'0 0.0
2017-Feb-15 09:31N 53°38' W 000°11'0 0.0
2017-Feb-15 08:31N 53°38' W 000°11'0 0.0
2017-Feb-15 07:31N 53°38' W 000°11'0 0.0
2017-Feb-15 06:33N 53°38' W 000°11'0 0.3
2017-Feb-15 05:33N 53°38' W 000°11'2 1.7
2017-Feb-15 04:34N 53°38' W 000°08'10 9.7
2017-Feb-15 03:34N 53°34' E 000°07'27810.3
2017-Feb-14 00:33N 54°05' E 007°55'1110.1
2017-Feb-13 23:26N 54°01' E 008°13'8 9.4
2017-Feb-13 22:33N 53°59' E 008°27'10 9.5
2017-Feb-13 21:32N 53°54' E 008°41'1212.1
2017-Feb-13 20:33N 53°51' E 009°01'5 5.3
2017-Feb-13 19:33N 53°54' E 009°09'7 6.6
2017-Feb-13 18:33N 53°59' E 009°16'45 6.2
2017-Feb-13 11:21N 54°28' E 010°15'7 8.9
2017-Feb-13 10:31N 54°32' E 010°25'9 9.0
2017-Feb-13 09:33N 54°35' E 010°39'9 9.0
2017-Feb-13 08:33N 54°35' E 010°55'9 9.4
2017-Feb-13 07:33N 54°36' E 011°11'9 8.7
2017-Feb-13 06:33N 54°32' E 011°24'9 8.7
2017-Feb-13 05:33N 54°28' E 011°38'8 8.4
2017-Feb-13 04:33N 54°27' E 011°52'8 8.5
2017-Feb-13 03:34N 54°27' E 012°06'8 7.9
2017-Feb-13 02:34N 54°34' E 012°13'8 8.4
2017-Feb-13 01:34N 54°40' E 012°22'9 8.7
2017-Feb-13 00:31N 54°45' E 012°35'38 8.6
2017-Feb-12 20:06N 54°58' E 013°37'5 9.0
2017-Feb-12 19:31N 55°00' E 013°46'8 8.8
2017-Feb-12 18:34N 55°03' E 013°59'8 8.3
2017-Feb-12 17:33N 55°08' E 014°11'8 8.4
2017-Feb-12 16:33N 55°15' E 014°20'8 8.5
2017-Feb-12 15:33N 55°22' E 014°29'8 7.8
2017-Feb-12 14:34N 55°26' E 014°41'8 8.4
2017-Feb-12 13:33N 55°27' E 014°56'9 8.7
2017-Feb-12 12:33N 55°28' E 015°11'  
Track history (hours):
 
Tides and Currents Weather Stations Pressure Air Temp Water Temp Dewpoint Dewpoint Depression Visibility Wind Speed Wind Dir Waves Ship Positions

Jolyn

Last reported at 2017-Feb-21 01:32 UTC. Time now 2017-Feb-24 08:14 UTC.
Position N 56°19' E 017°01'.

Length 89 m; draft 5.1 m.

Type: Cargo ship. MMSI: 306813000.

Date/timePositionNaut miles runAvg speedWind from/ knotsBaromVisibWave heightAir tempDewpointWater temp
2017-Feb-21 01:32N 56°19' E 017°01'1010.5
2017-Feb-21 00:33N 56°10' E 016°54'10 9.8
2017-Feb-20 23:33N 56°02' E 016°43'1010.4
2017-Feb-20 22:33N 55°57' E 016°27'1010.5
2017-Feb-20 21:33N 55°52' E 016°10'1010.4
2017-Feb-20 20:33N 55°47' E 015°54'1110.6
2017-Feb-20 19:33N 55°42' E 015°38'1110.8
2017-Feb-20 18:33N 55°37' E 015°21'1111.1
2017-Feb-20 17:32N 55°31' E 015°04'1111.2
2017-Feb-20 16:33N 55°26' E 014°47'1110.9
2017-Feb-20 15:33N 55°18' E 014°32'1111.0
2017-Feb-20 14:33N 55°10' E 014°20'1010.0
2017-Feb-20 13:33N 55°09' E 014°02'3210.4
2017-Feb-20 10:31N 55°13' E 013°07'1010.5
2017-Feb-20 09:33N 55°15' E 012°50'9 8.6
2017-Feb-20 08:33N 55°21' E 012°39'1010.5
2017-Feb-20 07:33N 55°31' E 012°42'1110.7
2017-Feb-20 06:33N 55°42' E 012°41'10 9.8
2017-Feb-20 05:33N 55°52' E 012°41'9 9.1
2017-Feb-20 04:33N 56°00' E 012°38'9 9.4
2017-Feb-20 03:33N 56°08' E 012°28'1010.1
2017-Feb-20 02:33N 56°14' E 012°13'  
2017-Feb-17 16:13N 56°59' E 010°51'811.9
2017-Feb-17 15:33N 57°06' E 010°47'1211.9
2017-Feb-17 14:33N 57°18' E 010°42'1212.0
2017-Feb-17 13:33N 57°30' E 010°43'1212.1
2017-Feb-17 12:33N 57°42' E 010°45'9 9.0
2017-Feb-17 11:33N 57°46' E 010°30'1212.4
2017-Feb-17 10:33N 57°42' E 010°08'42012.3
2017-Feb-16 00:33N 53°33' E 000°10'1413.6
2017-Feb-15 23:33N 53°38' W 000°11'0 0.2
2017-Feb-15 22:31N 53°38' W 000°11'0 0.0
2017-Feb-15 21:31N 53°38' W 000°11'0 0.0
2017-Feb-15 20:31N 53°38' W 000°11'0 0.0
2017-Feb-15 19:28N 53°38' W 000°11'0 0.0
2017-Feb-15 18:28N 53°38' W 000°11'0 0.0
2017-Feb-15 17:31N 53°38' W 000°11'0 0.0
2017-Feb-15 16:31N 53°38' W 000°11'0 0.0
2017-Feb-15 15:31N 53°38' W 000°11'0 0.0
2017-Feb-15 14:31N 53°38' W 000°11'0 0.0
2017-Feb-15 13:31N 53°38' W 000°11'0 0.0
2017-Feb-15 12:31N 53°38' W 000°11'0 0.0
2017-Feb-15 11:31N 53°38' W 000°11'0 0.0
2017-Feb-15 10:31N 53°38' W 000°11'0 0.0
2017-Feb-15 09:31N 53°38' W 000°11'0 0.0
2017-Feb-15 08:31N 53°38' W 000°11'0 0.0
2017-Feb-15 07:31N 53°38' W 000°11'0 0.0
2017-Feb-15 06:33N 53°38' W 000°11'0 0.3
2017-Feb-15 05:33N 53°38' W 000°11'2 1.7
2017-Feb-15 04:34N 53°38' W 000°08'10 9.7
2017-Feb-15 03:34N 53°34' E 000°07'27810.3
2017-Feb-14 00:33N 54°05' E 007°55'1110.1
2017-Feb-13 23:26N 54°01' E 008°13'8 9.4
2017-Feb-13 22:33N 53°59' E 008°27'10 9.5
2017-Feb-13 21:32N 53°54' E 008°41'1212.1
2017-Feb-13 20:33N 53°51' E 009°01'5 5.3
2017-Feb-13 19:33N 53°54' E 009°09'7 6.6
2017-Feb-13 18:33N 53°59' E 009°16'45 6.2
2017-Feb-13 11:21N 54°28' E 010°15'7 8.9
2017-Feb-13 10:31N 54°32' E 010°25'9 9.0
2017-Feb-13 09:33N 54°35' E 010°39'9 9.0
2017-Feb-13 08:33N 54°35' E 010°55'9 9.4
2017-Feb-13 07:33N 54°36' E 011°11'9 8.7
2017-Feb-13 06:33N 54°32' E 011°24'9 8.7
2017-Feb-13 05:33N 54°28' E 011°38'8 8.4
2017-Feb-13 04:33N 54°27' E 011°52'8 8.5
2017-Feb-13 03:34N 54°27' E 012°06'8 7.9
2017-Feb-13 02:34N 54°34' E 012°13'8 8.4
2017-Feb-13 01:34N 54°40' E 012°22'9 8.7
2017-Feb-13 00:31N 54°45' E 012°35'38 8.6
2017-Feb-12 20:06N 54°58' E 013°37'5 9.0
2017-Feb-12 19:31N 55°00' E 013°46'8 8.8
2017-Feb-12 18:34N 55°03' E 013°59'8 8.3
2017-Feb-12 17:33N 55°08' E 014°11'8 8.4
2017-Feb-12 16:33N 55°15' E 014°20'8 8.5
2017-Feb-12 15:33N 55°22' E 014°29'8 7.8
2017-Feb-12 14:34N 55°26' E 014°41'8 8.4
2017-Feb-12 13:33N 55°27' E 014°56'9 8.7
2017-Feb-12 12:33N 55°28' E 015°11'  

Dump ship's entire track history